sensor_id;sensor_type;location;lat;lon;timestamp;P1;durP1;ratioP1;P2;durP2;ratioP2
11143;SDS011;5626;44.730;10.276;2022-08-11T00:00:04;2.80;;;2.58;;
11143;SDS011;5626;44.730;10.276;2022-08-11T00:02:38;2.50;;;2.30;;
11143;SDS011;5626;44.730;10.276;2022-08-11T00:05:10;2.88;;;2.63;;
11143;SDS011;5626;44.730;10.276;2022-08-11T00:07:42;3.55;;;2.88;;
11143;SDS011;5626;44.730;10.276;2022-08-11T00:10:16;3.80;;;2.50;;
11143;SDS011;5626;44.730;10.276;2022-08-11T00:12:52;3.72;;;2.70;;
11143;SDS011;5626;44.730;10.276;2022-08-11T00:15:25;4.10;;;2.95;;
11143;SDS011;5626;44.730;10.276;2022-08-11T00:17:58;3.70;;;3.40;;
11143;SDS011;5626;44.730;10.276;2022-08-11T00:20:29;5.25;;;3.72;;
11143;SDS011;5626;44.730;10.276;2022-08-11T00:23:00;3.55;;;3.25;;
11143;SDS011;5626;44.730;10.276;2022-08-11T00:25:37;4.32;;;3.50;;
11143;SDS011;5626;44.730;10.276;2022-08-11T00:30:55;3.92;;;3.58;;
11143;SDS011;5626;44.730;10.276;2022-08-11T00:33:31;4.72;;;3.75;;
11143;SDS011;5626;44.730;10.276;2022-08-11T00:36:03;4.57;;;4.18;;
11143;SDS011;5626;44.730;10.276;2022-08-11T00:38:39;4.40;;;4.05;;
11143;SDS011;5626;44.730;10.276;2022-08-11T00:41:15;4.75;;;4.20;;
11143;SDS011;5626;44.730;10.276;2022-08-11T00:46:58;4.82;;;4.28;;
11143;SDS011;5626;44.730;10.276;2022-08-11T00:49:50;6.20;;;4.75;;
11143;SDS011;5626;44.730;10.276;2022-08-11T00:52:35;4.93;;;4.53;;
11143;SDS011;5626;44.730;10.276;2022-08-11T01:01:47;5.68;;;4.60;;
11143;SDS011;5626;44.730;10.276;2022-08-11T01:10:53;4.93;;;3.92;;
11143;SDS011;5626;44.730;10.276;2022-08-11T01:16:55;4.80;;;3.97;;
11143;SDS011;5626;44.730;10.276;2022-08-11T01:19:45;4.55;;;3.60;;
11143;SDS011;5626;44.730;10.276;2022-08-11T01:25:50;4.55;;;3.85;;
11143;SDS011;5626;44.730;10.276;2022-08-11T01:28:54;5.22;;;4.30;;
11143;SDS011;5626;44.730;10.276;2022-08-11T01:31:49;5.15;;;4.55;;
11143;SDS011;5626;44.730;10.276;2022-08-11T01:35:05;5.63;;;4.50;;
11143;SDS011;5626;44.730;10.276;2022-08-11T01:41:25;4.80;;;4.28;;
11143;SDS011;5626;44.730;10.276;2022-08-11T01:47:37;4.38;;;3.67;;
11143;SDS011;5626;44.730;10.276;2022-08-11T01:50:36;4.95;;;3.80;;
11143;SDS011;5626;44.730;10.276;2022-08-11T01:53:17;5.45;;;4.40;;
11143;SDS011;5626;44.730;10.276;2022-08-11T01:56:00;4.65;;;4.22;;
11143;SDS011;5626;44.730;10.276;2022-08-11T01:58:41;4.95;;;4.50;;
11143;SDS011;5626;44.730;10.276;2022-08-11T02:01:33;5.85;;;4.47;;
11143;SDS011;5626;44.730;10.276;2022-08-11T02:04:16;8.07;;;4.78;;
11143;SDS011;5626;44.730;10.276;2022-08-11T02:06:57;6.78;;;4.18;;
11143;SDS011;5626;44.730;10.276;2022-08-11T02:09:37;5.07;;;4.15;;
11143;SDS011;5626;44.730;10.276;2022-08-11T02:12:26;4.57;;;4.00;;
11143;SDS011;5626;44.730;10.276;2022-08-11T02:15:13;4.53;;;3.83;;
11143;SDS011;5626;44.730;10.276;2022-08-11T02:17:49;4.50;;;4.10;;
11143;SDS011;5626;44.730;10.276;2022-08-11T02:20:29;5.03;;;4.40;;
11143;SDS011;5626;44.730;10.276;2022-08-11T02:23:24;5.57;;;3.88;;
11143;SDS011;5626;44.730;10.276;2022-08-11T02:26:14;7.75;;;4.65;;
11143;SDS011;5626;44.730;10.276;2022-08-11T02:28:51;4.15;;;3.85;;
11143;SDS011;5626;44.730;10.276;2022-08-11T02:31:26;4.88;;;4.30;;
11143;SDS011;5626;44.730;10.276;2022-08-11T02:34:27;6.20;;;3.80;;
11143;SDS011;5626;44.730;10.276;2022-08-11T02:37:11;4.70;;;4.10;;
11143;SDS011;5626;44.730;10.276;2022-08-11T02:40:05;5.50;;;4.13;;
11143;SDS011;5626;44.730;10.276;2022-08-11T02:42:48;5.25;;;3.88;;
11143;SDS011;5626;44.730;10.276;2022-08-11T02:45:30;5.30;;;4.18;;
11143;SDS011;5626;44.730;10.276;2022-08-11T02:48:07;4.55;;;4.18;;
11143;SDS011;5626;44.730;10.276;2022-08-11T02:51:16;4.40;;;4.00;;
11143;SDS011;5626;44.730;10.276;2022-08-11T02:53:53;4.82;;;4.20;;
11143;SDS011;5626;44.730;10.276;2022-08-11T02:56:42;4.60;;;4.20;;
11143;SDS011;5626;44.730;10.276;2022-08-11T02:59:23;4.45;;;4.05;;
11143;SDS011;5626;44.730;10.276;2022-08-11T03:05:22;4.82;;;3.90;;
11143;SDS011;5626;44.730;10.276;2022-08-11T03:08:18;5.50;;;4.35;;
11143;SDS011;5626;44.730;10.276;2022-08-11T03:11:00;4.30;;;4.00;;
11143;SDS011;5626;44.730;10.276;2022-08-11T03:13:58;4.75;;;3.95;;
11143;SDS011;5626;44.730;10.276;2022-08-11T03:17:03;4.57;;;4.18;;
11143;SDS011;5626;44.730;10.276;2022-08-11T03:19:42;4.50;;;4.10;;
11143;SDS011;5626;44.730;10.276;2022-08-11T03:22:21;4.50;;;4.10;;
11143;SDS011;5626;44.730;10.276;2022-08-11T03:24:56;5.07;;;4.10;;
11143;SDS011;5626;44.730;10.276;2022-08-11T03:27:38;6.63;;;4.15;;
11143;SDS011;5626;44.730;10.276;2022-08-11T03:30:18;4.60;;;4.20;;
11143;SDS011;5626;44.730;10.276;2022-08-11T03:32:57;6.15;;;4.50;;
11143;SDS011;5626;44.730;10.276;2022-08-11T03:35:53;4.93;;;4.50;;
11143;SDS011;5626;44.730;10.276;2022-08-11T03:38:47;5.45;;;4.28;;
11143;SDS011;5626;44.730;10.276;2022-08-11T03:41:31;5.47;;;3.97;;
11143;SDS011;5626;44.730;10.276;2022-08-11T03:44:24;6.13;;;4.43;;
11143;SDS011;5626;44.730;10.276;2022-08-11T03:47:11;4.90;;;4.50;;
11143;SDS011;5626;44.730;10.276;2022-08-11T03:50:20;4.82;;;4.35;;
11143;SDS011;5626;44.730;10.276;2022-08-11T03:53:01;7.53;;;4.82;;
11143;SDS011;5626;44.730;10.276;2022-08-11T03:56:03;5.10;;;4.45;;
11143;SDS011;5626;44.730;10.276;2022-08-11T03:59:11;6.07;;;5.10;;
11143;SDS011;5626;44.730;10.276;2022-08-11T04:02:26;5.22;;;4.72;;
11143;SDS011;5626;44.730;10.276;2022-08-11T04:08:18;5.55;;;4.63;;
11143;SDS011;5626;44.730;10.276;2022-08-11T04:11:16;6.63;;;5.25;;
11143;SDS011;5626;44.730;10.276;2022-08-11T04:14:20;5.68;;;4.78;;
11143;SDS011;5626;44.730;10.276;2022-08-11T04:20:34;6.05;;;5.55;;
11143;SDS011;5626;44.730;10.276;2022-08-11T04:23:40;7.80;;;6.57;;
11143;SDS011;5626;44.730;10.276;2022-08-11T04:29:34;7.47;;;5.80;;
11143;SDS011;5626;44.730;10.276;2022-08-11T04:32:25;6.78;;;6.05;;
11143;SDS011;5626;44.730;10.276;2022-08-11T04:35:10;6.28;;;5.68;;
11143;SDS011;5626;44.730;10.276;2022-08-11T04:47:41;7.00;;;5.47;;
11143;SDS011;5626;44.730;10.276;2022-08-11T04:50:45;6.97;;;6.32;;
11143;SDS011;5626;44.730;10.276;2022-08-11T04:53:59;6.80;;;5.80;;
11143;SDS011;5626;44.730;10.276;2022-08-11T04:56:56;7.85;;;5.57;;
11143;SDS011;5626;44.730;10.276;2022-08-11T04:59:56;7.57;;;6.00;;
11143;SDS011;5626;44.730;10.276;2022-08-11T05:06:15;6.38;;;5.45;;
11143;SDS011;5626;44.730;10.276;2022-08-11T05:09:24;5.85;;;4.78;;
11143;SDS011;5626;44.730;10.276;2022-08-11T05:12:25;5.93;;;5.35;;
11143;SDS011;5626;44.730;10.276;2022-08-11T05:14:59;11.52;;;6.32;;
11143;SDS011;5626;44.730;10.276;2022-08-11T05:17:53;6.35;;;5.85;;
11143;SDS011;5626;44.730;10.276;2022-08-11T05:20:46;6.55;;;5.90;;
11143;SDS011;5626;44.730;10.276;2022-08-11T05:23:40;6.50;;;5.88;;
11143;SDS011;5626;44.730;10.276;2022-08-11T05:26:29;6.82;;;5.90;;
11143;SDS011;5626;44.730;10.276;2022-08-11T05:29:35;6.60;;;5.93;;
11143;SDS011;5626;44.730;10.276;2022-08-11T05:32:29;7.63;;;6.57;;
11143;SDS011;5626;44.730;10.276;2022-08-11T05:35:25;5.88;;;5.38;;
11143;SDS011;5626;44.730;10.276;2022-08-11T05:37:58;8.05;;;5.63;;
11143;SDS011;5626;44.730;10.276;2022-08-11T05:40:49;7.70;;;5.40;;
11143;SDS011;5626;44.730;10.276;2022-08-11T05:43:41;7.88;;;6.43;;
11143;SDS011;5626;44.730;10.276;2022-08-11T05:46:36;9.15;;;6.00;;
11143;SDS011;5626;44.730;10.276;2022-08-11T05:49:28;6.88;;;6.20;;
11143;SDS011;5626;44.730;10.276;2022-08-11T05:52:19;7.22;;;5.93;;
11143;SDS011;5626;44.730;10.276;2022-08-11T05:55:09;7.47;;;6.07;;
11143;SDS011;5626;44.730;10.276;2022-08-11T05:57:59;6.30;;;5.63;;
11143;SDS011;5626;44.730;10.276;2022-08-11T06:00:31;7.43;;;5.53;;
11143;SDS011;5626;44.730;10.276;2022-08-11T06:03:10;10.90;;;6.07;;
11143;SDS011;5626;44.730;10.276;2022-08-11T06:05:49;16.27;;;6.18;;
11143;SDS011;5626;44.730;10.276;2022-08-11T06:08:27;13.55;;;5.72;;
11143;SDS011;5626;44.730;10.276;2022-08-11T06:10:59;13.40;;;6.20;;
11143;SDS011;5626;44.730;10.276;2022-08-11T06:13:31;10.38;;;6.53;;
11143;SDS011;5626;44.730;10.276;2022-08-11T06:16:02;10.00;;;6.63;;
11143;SDS011;5626;44.730;10.276;2022-08-11T06:18:33;14.77;;;6.75;;
11143;SDS011;5626;44.730;10.276;2022-08-11T06:21:07;7.05;;;6.28;;
11143;SDS011;5626;44.730;10.276;2022-08-11T06:23:40;7.80;;;5.93;;
11143;SDS011;5626;44.730;10.276;2022-08-11T06:26:11;8.40;;;5.75;;
11143;SDS011;5626;44.730;10.276;2022-08-11T06:28:44;10.20;;;5.60;;
11143;SDS011;5626;44.730;10.276;2022-08-11T06:31:15;8.13;;;5.40;;
11143;SDS011;5626;44.730;10.276;2022-08-11T06:33:51;8.85;;;5.20;;
11143;SDS011;5626;44.730;10.276;2022-08-11T06:36:29;7.90;;;4.90;;
11143;SDS011;5626;44.730;10.276;2022-08-11T06:39:08;7.93;;;4.93;;
11143;SDS011;5626;44.730;10.276;2022-08-11T06:41:44;7.80;;;5.57;;
11143;SDS011;5626;44.730;10.276;2022-08-11T06:44:21;10.45;;;4.68;;
11143;SDS011;5626;44.730;10.276;2022-08-11T06:46:56;4.78;;;4.30;;
11143;SDS011;5626;44.730;10.276;2022-08-11T06:49:36;7.07;;;5.45;;
11143;SDS011;5626;44.730;10.276;2022-08-11T06:52:28;7.93;;;6.05;;
11143;SDS011;5626;44.730;10.276;2022-08-11T06:55:06;4.75;;;4.35;;
11143;SDS011;5626;44.730;10.276;2022-08-11T06:57:43;5.55;;;4.93;;
11143;SDS011;5626;44.730;10.276;2022-08-11T07:00:33;6.00;;;4.70;;
11143;SDS011;5626;44.730;10.276;2022-08-11T07:03:05;7.40;;;4.10;;
11143;SDS011;5626;44.730;10.276;2022-08-11T07:05:40;8.65;;;4.00;;
11143;SDS011;5626;44.730;10.276;2022-08-11T07:12:01;4.65;;;3.90;;
11143;SDS011;5626;44.730;10.276;2022-08-11T07:15:07;7.20;;;3.85;;
11143;SDS011;5626;44.730;10.276;2022-08-11T07:17:55;4.45;;;3.97;;
11143;SDS011;5626;44.730;10.276;2022-08-11T07:20:47;6.35;;;4.13;;
11143;SDS011;5626;44.730;10.276;2022-08-11T07:23:35;6.20;;;4.45;;
11143;SDS011;5626;44.730;10.276;2022-08-11T07:26:24;4.28;;;3.67;;
11143;SDS011;5626;44.730;10.276;2022-08-11T07:29:13;5.05;;;4.32;;
11143;SDS011;5626;44.730;10.276;2022-08-11T07:31:45;5.85;;;4.32;;
11143;SDS011;5626;44.730;10.276;2022-08-11T07:34:20;6.57;;;4.75;;
11143;SDS011;5626;44.730;10.276;2022-08-11T07:36:55;4.05;;;3.75;;
11143;SDS011;5626;44.730;10.276;2022-08-11T07:39:26;5.20;;;4.70;;
11143;SDS011;5626;44.730;10.276;2022-08-11T07:41:59;5.20;;;4.38;;
11143;SDS011;5626;44.730;10.276;2022-08-11T07:44:36;6.45;;;4.30;;
11143;SDS011;5626;44.730;10.276;2022-08-11T07:47:22;6.40;;;4.03;;
11143;SDS011;5626;44.730;10.276;2022-08-11T07:50:09;5.88;;;3.80;;
11143;SDS011;5626;44.730;10.276;2022-08-11T07:52:57;6.00;;;3.47;;
11143;SDS011;5626;44.730;10.276;2022-08-11T07:55:28;4.05;;;3.33;;
11143;SDS011;5626;44.730;10.276;2022-08-11T07:57:59;6.78;;;3.35;;
11143;SDS011;5626;44.730;10.276;2022-08-11T08:00:49;6.65;;;3.70;;
11143;SDS011;5626;44.730;10.276;2022-08-11T08:03:38;4.05;;;3.47;;
11143;SDS011;5626;44.730;10.276;2022-08-11T08:06:27;5.93;;;3.30;;
11143;SDS011;5626;44.730;10.276;2022-08-11T08:09:18;3.33;;;3.03;;
11143;SDS011;5626;44.730;10.276;2022-08-11T08:12:07;3.78;;;2.95;;
11143;SDS011;5626;44.730;10.276;2022-08-11T08:14:55;4.20;;;3.47;;
11143;SDS011;5626;44.730;10.276;2022-08-11T08:17:44;3.60;;;3.30;;
11143;SDS011;5626;44.730;10.276;2022-08-11T08:20:24;4.85;;;3.30;;
11143;SDS011;5626;44.730;10.276;2022-08-11T08:22:57;6.30;;;3.38;;
11143;SDS011;5626;44.730;10.276;2022-08-11T08:25:30;3.28;;;2.97;;
11143;SDS011;5626;44.730;10.276;2022-08-11T08:28:02;4.13;;;3.40;;
11143;SDS011;5626;44.730;10.276;2022-08-11T08:30:35;4.05;;;3.47;;
11143;SDS011;5626;44.730;10.276;2022-08-11T08:33:21;5.32;;;3.10;;
11143;SDS011;5626;44.730;10.276;2022-08-11T08:35:53;6.22;;;3.35;;
11143;SDS011;5626;44.730;10.276;2022-08-11T08:38:39;6.68;;;3.25;;
11143;SDS011;5626;44.730;10.276;2022-08-11T08:41:10;4.22;;;3.45;;
11143;SDS011;5626;44.730;10.276;2022-08-11T08:43:41;4.07;;;3.20;;
11143;SDS011;5626;44.730;10.276;2022-08-11T08:46:13;6.55;;;3.22;;
11143;SDS011;5626;44.730;10.276;2022-08-11T08:48:47;4.53;;;3.20;;
11143;SDS011;5626;44.730;10.276;2022-08-11T08:51:18;4.35;;;3.70;;
11143;SDS011;5626;44.730;10.276;2022-08-11T08:54:05;5.90;;;3.40;;
11143;SDS011;5626;44.730;10.276;2022-08-11T08:56:37;3.67;;;3.20;;
11143;SDS011;5626;44.730;10.276;2022-08-11T08:59:08;3.30;;;3.00;;
11143;SDS011;5626;44.730;10.276;2022-08-11T09:01:41;4.63;;;3.20;;
11143;SDS011;5626;44.730;10.276;2022-08-11T09:04:17;3.28;;;2.88;;
11143;SDS011;5626;44.730;10.276;2022-08-11T09:06:48;3.47;;;3.03;;
11143;SDS011;5626;44.730;10.276;2022-08-11T09:09:19;3.33;;;3.03;;
11143;SDS011;5626;44.730;10.276;2022-08-11T09:11:49;9.73;;;3.42;;
11143;SDS011;5626;44.730;10.276;2022-08-11T09:14:21;5.03;;;3.13;;
11143;SDS011;5626;44.730;10.276;2022-08-11T09:17:12;4.80;;;2.95;;
11143;SDS011;5626;44.730;10.276;2022-08-11T09:19:44;3.33;;;3.03;;
11143;SDS011;5626;44.730;10.276;2022-08-11T09:22:16;4.32;;;2.92;;
11143;SDS011;5626;44.730;10.276;2022-08-11T09:25:05;6.07;;;3.10;;
11143;SDS011;5626;44.730;10.276;2022-08-11T09:27:53;3.33;;;3.03;;
11143;SDS011;5626;44.730;10.276;2022-08-11T09:30:24;3.50;;;2.80;;
11143;SDS011;5626;44.730;10.276;2022-08-11T09:32:55;5.07;;;3.17;;
11143;SDS011;5626;44.730;10.276;2022-08-11T09:35:29;6.35;;;3.35;;
11143;SDS011;5626;44.730;10.276;2022-08-11T09:38:01;7.97;;;3.10;;
11143;SDS011;5626;44.730;10.276;2022-08-11T09:40:50;5.05;;;2.88;;
11143;SDS011;5626;44.730;10.276;2022-08-11T09:43:20;4.72;;;2.92;;
11143;SDS011;5626;44.730;10.276;2022-08-11T09:46:21;5.40;;;3.05;;
11143;SDS011;5626;44.730;10.276;2022-08-11T09:48:56;4.07;;;2.88;;
11143;SDS011;5626;44.730;10.276;2022-08-11T09:51:29;3.17;;;2.67;;
11143;SDS011;5626;44.730;10.276;2022-08-11T09:54:01;3.05;;;2.67;;
11143;SDS011;5626;44.730;10.276;2022-08-11T09:56:33;2.85;;;2.65;;
11143;SDS011;5626;44.730;10.276;2022-08-11T09:59:21;2.95;;;2.53;;
11143;SDS011;5626;44.730;10.276;2022-08-11T10:01:53;4.05;;;2.70;;
11143;SDS011;5626;44.730;10.276;2022-08-11T10:04:27;3.28;;;2.50;;
11143;SDS011;5626;44.730;10.276;2022-08-11T10:07:04;2.58;;;2.38;;
11143;SDS011;5626;44.730;10.276;2022-08-11T10:09:38;3.42;;;2.72;;
11143;SDS011;5626;44.730;10.276;2022-08-11T10:12:13;3.47;;;2.70;;
11143;SDS011;5626;44.730;10.276;2022-08-11T10:14:52;3.08;;;2.83;;
11143;SDS011;5626;44.730;10.276;2022-08-11T10:17:42;2.97;;;2.78;;
11143;SDS011;5626;44.730;10.276;2022-08-11T10:20:34;3.08;;;2.63;;
11143;SDS011;5626;44.730;10.276;2022-08-11T10:23:07;3.13;;;2.78;;
11143;SDS011;5626;44.730;10.276;2022-08-11T10:25:57;5.93;;;3.10;;
11143;SDS011;5626;44.730;10.276;2022-08-11T10:28:44;3.10;;;2.80;;
11143;SDS011;5626;44.730;10.276;2022-08-11T10:31:28;3.03;;;2.75;;
11143;SDS011;5626;44.730;10.276;2022-08-11T10:34:16;2.92;;;2.63;;
11143;SDS011;5626;44.730;10.276;2022-08-11T10:36:50;2.90;;;2.70;;
11143;SDS011;5626;44.730;10.276;2022-08-11T10:39:23;3.00;;;2.65;;
11143;SDS011;5626;44.730;10.276;2022-08-11T10:41:54;3.63;;;2.75;;
11143;SDS011;5626;44.730;10.276;2022-08-11T10:44:49;5.38;;;3.10;;
11143;SDS011;5626;44.730;10.276;2022-08-11T10:47:22;5.35;;;2.83;;
11143;SDS011;5626;44.730;10.276;2022-08-11T10:50:06;2.75;;;2.55;;
11143;SDS011;5626;44.730;10.276;2022-08-11T10:52:55;3.67;;;2.60;;
11143;SDS011;5626;44.730;10.276;2022-08-11T10:55:46;3.03;;;2.70;;
11143;SDS011;5626;44.730;10.276;2022-08-11T10:58:34;3.25;;;2.83;;
11143;SDS011;5626;44.730;10.276;2022-08-11T11:01:20;3.88;;;3.05;;
11143;SDS011;5626;44.730;10.276;2022-08-11T11:03:54;3.08;;;2.88;;
11143;SDS011;5626;44.730;10.276;2022-08-11T11:06:27;4.63;;;2.80;;
11143;SDS011;5626;44.730;10.276;2022-08-11T11:09:02;3.22;;;2.92;;
11143;SDS011;5626;44.730;10.276;2022-08-11T11:11:37;5.45;;;3.00;;
11143;SDS011;5626;44.730;10.276;2022-08-11T11:14:30;3.85;;;3.08;;
11143;SDS011;5626;44.730;10.276;2022-08-11T11:17:22;2.90;;;2.70;;
11143;SDS011;5626;44.730;10.276;2022-08-11T11:20:15;5.30;;;3.00;;
11143;SDS011;5626;44.730;10.276;2022-08-11T11:22:49;4.88;;;2.92;;
11143;SDS011;5626;44.730;10.276;2022-08-11T11:25:24;6.88;;;3.08;;
11143;SDS011;5626;44.730;10.276;2022-08-11T11:28:41;3.35;;;3.03;;
11143;SDS011;5626;44.730;10.276;2022-08-11T11:31:37;5.40;;;3.30;;
11143;SDS011;5626;44.730;10.276;2022-08-11T11:34:22;3.42;;;2.97;;
11143;SDS011;5626;44.730;10.276;2022-08-11T11:37:06;4.90;;;2.60;;
11143;SDS011;5626;44.730;10.276;2022-08-11T11:39:39;2.72;;;2.53;;
11143;SDS011;5626;44.730;10.276;2022-08-11T11:42:09;3.00;;;2.80;;
11143;SDS011;5626;44.730;10.276;2022-08-11T11:44:42;5.80;;;2.95;;
11143;SDS011;5626;44.730;10.276;2022-08-11T11:47:13;3.13;;;2.80;;
11143;SDS011;5626;44.730;10.276;2022-08-11T11:49:47;3.40;;;3.10;;
11143;SDS011;5626;44.730;10.276;2022-08-11T11:52:18;3.35;;;3.05;;
11143;SDS011;5626;44.730;10.276;2022-08-11T11:54:50;4.28;;;2.97;;
11143;SDS011;5626;44.730;10.276;2022-08-11T11:57:22;3.83;;;3.03;;
11143;SDS011;5626;44.730;10.276;2022-08-11T12:00:12;4.25;;;3.20;;
11143;SDS011;5626;44.730;10.276;2022-08-11T12:03:01;3.42;;;2.97;;
11143;SDS011;5626;44.730;10.276;2022-08-11T12:05:34;3.13;;;2.88;;
11143;SDS011;5626;44.730;10.276;2022-08-11T12:08:06;3.50;;;3.30;;
11143;SDS011;5626;44.730;10.276;2022-08-11T12:10:43;3.00;;;2.80;;
11143;SDS011;5626;44.730;10.276;2022-08-11T12:13:15;3.25;;;2.92;;
11143;SDS011;5626;44.730;10.276;2022-08-11T12:16:05;3.20;;;2.90;;
11143;SDS011;5626;44.730;10.276;2022-08-11T12:18:38;3.35;;;2.78;;
11143;SDS011;5626;44.730;10.276;2022-08-11T12:21:10;4.00;;;2.88;;
11143;SDS011;5626;44.730;10.276;2022-08-11T12:23:43;3.45;;;2.92;;
11143;SDS011;5626;44.730;10.276;2022-08-11T12:26:32;3.47;;;2.83;;
11143;SDS011;5626;44.730;10.276;2022-08-11T12:29:20;4.03;;;3.03;;
11143;SDS011;5626;44.730;10.276;2022-08-11T12:31:55;3.15;;;2.88;;
11143;SDS011;5626;44.730;10.276;2022-08-11T12:34:27;4.28;;;3.20;;
11143;SDS011;5626;44.730;10.276;2022-08-11T12:36:57;3.38;;;3.08;;
11143;SDS011;5626;44.730;10.276;2022-08-11T12:39:30;4.15;;;2.80;;
11143;SDS011;5626;44.730;10.276;2022-08-11T12:42:22;2.80;;;2.60;;
11143;SDS011;5626;44.730;10.276;2022-08-11T12:45:11;3.20;;;2.90;;
11143;SDS011;5626;44.730;10.276;2022-08-11T12:48:06;3.42;;;3.13;;
11143;SDS011;5626;44.730;10.276;2022-08-11T12:50:59;3.08;;;2.70;;
11143;SDS011;5626;44.730;10.276;2022-08-11T12:53:52;4.25;;;2.80;;
11143;SDS011;5626;44.730;10.276;2022-08-11T12:56:25;4.35;;;3.20;;
11143;SDS011;5626;44.730;10.276;2022-08-11T12:59:17;3.22;;;2.92;;
11143;SDS011;5626;44.730;10.276;2022-08-11T13:02:04;3.58;;;2.80;;
11143;SDS011;5626;44.730;10.276;2022-08-11T13:04:53;3.63;;;3.03;;
11143;SDS011;5626;44.730;10.276;2022-08-11T13:07:26;3.95;;;3.10;;
11143;SDS011;5626;44.730;10.276;2022-08-11T13:09:57;3.55;;;2.80;;
11143;SDS011;5626;44.730;10.276;2022-08-11T13:12:29;3.33;;;3.03;;
11143;SDS011;5626;44.730;10.276;2022-08-11T13:15:18;3.38;;;2.75;;
11143;SDS011;5626;44.730;10.276;2022-08-11T13:17:51;3.58;;;3.00;;
11143;SDS011;5626;44.730;10.276;2022-08-11T13:20:24;3.45;;;3.15;;
11143;SDS011;5626;44.730;10.276;2022-08-11T13:22:55;3.45;;;3.15;;
11143;SDS011;5626;44.730;10.276;2022-08-11T13:25:27;4.47;;;3.00;;
11143;SDS011;5626;44.730;10.276;2022-08-11T13:28:00;4.00;;;2.97;;
11143;SDS011;5626;44.730;10.276;2022-08-11T13:30:30;4.55;;;2.88;;
11143;SDS011;5626;44.730;10.276;2022-08-11T13:33:18;3.25;;;2.88;;
11143;SDS011;5626;44.730;10.276;2022-08-11T13:35:50;2.95;;;2.70;;
11143;SDS011;5626;44.730;10.276;2022-08-11T13:38:23;3.72;;;3.28;;
11143;SDS011;5626;44.730;10.276;2022-08-11T13:40:54;3.72;;;3.30;;
11143;SDS011;5626;44.730;10.276;2022-08-11T13:43:25;5.00;;;2.97;;
11143;SDS011;5626;44.730;10.276;2022-08-11T13:45:55;3.92;;;2.80;;
11143;SDS011;5626;44.730;10.276;2022-08-11T13:48:39;3.00;;;2.80;;
11143;SDS011;5626;44.730;10.276;2022-08-11T13:51:11;3.00;;;2.80;;
11143;SDS011;5626;44.730;10.276;2022-08-11T13:54:02;3.08;;;2.88;;
11143;SDS011;5626;44.730;10.276;2022-08-11T13:56:34;4.05;;;3.08;;
11143;SDS011;5626;44.730;10.276;2022-08-11T13:59:07;2.95;;;2.70;;
11143;SDS011;5626;44.730;10.276;2022-08-11T14:01:38;3.10;;;2.85;;
11143;SDS011;5626;44.730;10.276;2022-08-11T14:04:13;4.20;;;3.00;;
11143;SDS011;5626;44.730;10.276;2022-08-11T14:06:49;3.13;;;2.90;;
11143;SDS011;5626;44.730;10.276;2022-08-11T14:09:22;3.70;;;2.90;;
11143;SDS011;5626;44.730;10.276;2022-08-11T14:11:56;3.10;;;2.90;;
11143;SDS011;5626;44.730;10.276;2022-08-11T14:14:51;3.58;;;3.03;;
11143;SDS011;5626;44.730;10.276;2022-08-11T14:17:30;3.53;;;3.22;;
11143;SDS011;5626;44.730;10.276;2022-08-11T14:20:03;3.85;;;3.00;;
11143;SDS011;5626;44.730;10.276;2022-08-11T14:22:37;3.20;;;2.92;;
11143;SDS011;5626;44.730;10.276;2022-08-11T14:25:08;4.65;;;3.03;;
11143;SDS011;5626;44.730;10.276;2022-08-11T14:27:39;3.58;;;3.15;;
11143;SDS011;5626;44.730;10.276;2022-08-11T14:30:10;4.95;;;3.25;;
11143;SDS011;5626;44.730;10.276;2022-08-11T14:33:01;3.28;;;3.00;;
11143;SDS011;5626;44.730;10.276;2022-08-11T14:35:32;6.50;;;3.00;;
11143;SDS011;5626;44.730;10.276;2022-08-11T14:38:03;2.78;;;2.58;;
11143;SDS011;5626;44.730;10.276;2022-08-11T14:40:33;2.92;;;2.63;;
11143;SDS011;5626;44.730;10.276;2022-08-11T14:43:20;6.38;;;2.97;;
11143;SDS011;5626;44.730;10.276;2022-08-11T14:46:08;3.28;;;3.08;;
11143;SDS011;5626;44.730;10.276;2022-08-11T14:48:55;3.25;;;2.95;;
11143;SDS011;5626;44.730;10.276;2022-08-11T14:51:26;4.47;;;2.67;;
11143;SDS011;5626;44.730;10.276;2022-08-11T14:53:58;11.98;;;3.53;;
11143;SDS011;5626;44.730;10.276;2022-08-11T14:56:42;3.28;;;2.97;;
11143;SDS011;5626;44.730;10.276;2022-08-11T14:59:12;3.35;;;3.10;;
11143;SDS011;5626;44.730;10.276;2022-08-11T15:01:43;3.10;;;2.90;;
11143;SDS011;5626;44.730;10.276;2022-08-11T15:04:35;4.03;;;2.85;;
11143;SDS011;5626;44.730;10.276;2022-08-11T15:07:07;3.42;;;2.85;;
11143;SDS011;5626;44.730;10.276;2022-08-11T15:09:40;4.80;;;3.40;;
11143;SDS011;5626;44.730;10.276;2022-08-11T15:12:22;4.32;;;3.10;;
11143;SDS011;5626;44.730;10.276;2022-08-11T15:14:53;3.05;;;2.83;;
11143;SDS011;5626;44.730;10.276;2022-08-11T15:17:40;4.72;;;2.80;;
11143;SDS011;5626;44.730;10.276;2022-08-11T15:20:13;3.38;;;3.00;;
11143;SDS011;5626;44.730;10.276;2022-08-11T15:23:02;2.83;;;2.63;;
11143;SDS011;5626;44.730;10.276;2022-08-11T15:25:52;4.95;;;2.60;;
11143;SDS011;5626;44.730;10.276;2022-08-11T15:28:26;3.33;;;2.90;;
11143;SDS011;5626;44.730;10.276;2022-08-11T15:31:16;3.00;;;2.80;;
11143;SDS011;5626;44.730;10.276;2022-08-11T15:34:06;3.10;;;2.90;;
11143;SDS011;5626;44.730;10.276;2022-08-11T15:36:56;5.20;;;2.97;;
11143;SDS011;5626;44.730;10.276;2022-08-11T15:39:48;3.05;;;2.63;;
11143;SDS011;5626;44.730;10.276;2022-08-11T15:42:42;2.92;;;2.72;;
11143;SDS011;5626;44.730;10.276;2022-08-11T15:45:34;4.22;;;2.60;;
11143;SDS011;5626;44.730;10.276;2022-08-11T15:48:18;3.08;;;2.88;;
11143;SDS011;5626;44.730;10.276;2022-08-11T15:51:07;3.10;;;2.80;;
11143;SDS011;5626;44.730;10.276;2022-08-11T15:53:40;3.75;;;2.83;;
11143;SDS011;5626;44.730;10.276;2022-08-11T15:56:13;4.55;;;2.90;;
11143;SDS011;5626;44.730;10.276;2022-08-11T15:58:46;3.05;;;2.78;;
11143;SDS011;5626;44.730;10.276;2022-08-11T16:01:38;3.78;;;3.10;;
11143;SDS011;5626;44.730;10.276;2022-08-11T16:04:29;3.65;;;3.22;;
11143;SDS011;5626;44.730;10.276;2022-08-11T16:07:00;3.63;;;2.90;;
11143;SDS011;5626;44.730;10.276;2022-08-11T16:09:34;3.65;;;2.92;;
11143;SDS011;5626;44.730;10.276;2022-08-11T16:12:12;3.53;;;3.05;;
11143;SDS011;5626;44.730;10.276;2022-08-11T16:14:47;2.85;;;2.65;;
11143;SDS011;5626;44.730;10.276;2022-08-11T16:17:38;4.30;;;2.78;;
11143;SDS011;5626;44.730;10.276;2022-08-11T16:20:10;3.35;;;2.97;;
11143;SDS011;5626;44.730;10.276;2022-08-11T16:22:42;3.22;;;2.80;;
11143;SDS011;5626;44.730;10.276;2022-08-11T16:25:16;3.25;;;2.78;;
11143;SDS011;5626;44.730;10.276;2022-08-11T16:27:49;3.70;;;2.80;;
11143;SDS011;5626;44.730;10.276;2022-08-11T16:30:22;2.90;;;2.67;;
11143;SDS011;5626;44.730;10.276;2022-08-11T16:32:53;2.80;;;2.58;;
11143;SDS011;5626;44.730;10.276;2022-08-11T16:35:26;3.42;;;2.83;;
11143;SDS011;5626;44.730;10.276;2022-08-11T16:38:15;3.20;;;2.75;;
11143;SDS011;5626;44.730;10.276;2022-08-11T16:41:02;3.65;;;2.80;;
11143;SDS011;5626;44.730;10.276;2022-08-11T16:43:38;4.85;;;2.90;;
11143;SDS011;5626;44.730;10.276;2022-08-11T16:46:29;3.17;;;2.85;;
11143;SDS011;5626;44.730;10.276;2022-08-11T16:49:20;3.03;;;2.70;;
11143;SDS011;5626;44.730;10.276;2022-08-11T16:51:52;3.42;;;2.88;;
11143;SDS011;5626;44.730;10.276;2022-08-11T16:54:22;5.97;;;3.10;;
11143;SDS011;5626;44.730;10.276;2022-08-11T16:56:52;3.10;;;2.80;;
11143;SDS011;5626;44.730;10.276;2022-08-11T16:59:25;2.95;;;2.75;;
11143;SDS011;5626;44.730;10.276;2022-08-11T17:02:00;2.80;;;2.60;;
11143;SDS011;5626;44.730;10.276;2022-08-11T17:04:35;4.05;;;2.70;;
11143;SDS011;5626;44.730;10.276;2022-08-11T17:07:26;3.22;;;2.67;;
11143;SDS011;5626;44.730;10.276;2022-08-11T17:10:17;3.10;;;2.90;;
11143;SDS011;5626;44.730;10.276;2022-08-11T17:13:06;4.25;;;2.65;;
11143;SDS011;5626;44.730;10.276;2022-08-11T17:15:40;3.05;;;2.85;;